US-0929 weather

CLOSED Sisk Restricted Landing Area
Dunlap, Illinois, United States

Public forecast

Using degrees Fahrenheit for public forecast. Weather courtesy of forecast.io.

Closest aviation weather report (METAR) to Sisk Restricted Landing Area

Closest report is General Wayne A. Downing Peoria International Airport, 11.4 nm (21.0 km) S. Retrieved 2020/06/06 22:54 UTC (32 minutes ago):

KPIA 062254Z 02004KT 10SM CLR 31/13 A2999 RMK AO2 SLP148 T03110128

Closest aviation forecast (TAF) to Sisk Restricted Landing Area

Closest forecast is General Wayne A. Downing Peoria International Airport, 11.4 nm (21.0 km) S. Retrieved 2020/06/06 18:22 UTC (5 hours ago):

TAF KPIA 061720Z 0618/0718 05006KT P6SM SCT250 FM070200 08007KT P6SM SKC FM071400 12008KT P6SM SCT250